Copeland, Idaho
Current Conditions -  °F | °C
As of 12:15 PM on Thursday 23 Oct 2014 (Local Time) from K65S Reporting Station
Broken Clouds Broken Clouds  
Wind Chill: 50°   Ceiling: 1500
Heat Index: 50°   Visibility: 9mi
Dew Point: 48°   Wind: 10mph
Humidity: 94%   Direction: 70°ENE
Pressure: 29.75"   Gusts: NA
Location:  48.8159°N, 116.65°W
Report Text: K65S 231915Z AUTO 07009KT 9SM FEW009 BKN015 10/09 A2975 RMK AO2
Loading
Personal Weather Stations






























Interactive Weather Map
Tropical Storm Tracking
New forecast layout! Learn more

10-Day Weather Forecast

Advertisements
Track Severe Weather on mobile